createdAt,value
2022-08-29T00:01:12.701Z,97190.03
2022-08-29T00:03:41.043Z,97194.16
2022-08-29T00:06:09.263Z,97198.44
2022-08-29T00:08:36.477Z,97193.53
2022-08-29T00:11:04.050Z,97192.09
2022-08-29T00:13:31.335Z,97197.56
2022-08-29T00:15:58.863Z,97191.94
2022-08-29T00:18:26.187Z,97196.06
2022-08-29T00:20:53.812Z,97190.44
2022-08-29T00:23:21.157Z,97196.16
2022-08-29T00:25:51.810Z,97190.47
2022-08-29T00:28:19.747Z,97195.31
2022-08-29T00:30:46.931Z,97195.31
2022-08-29T00:33:14.214Z,97191.09
2022-08-29T00:35:43.170Z,97194.44
2022-08-29T00:38:13.312Z,97191.47
2022-08-29T00:40:51.850Z,97198.44
2022-08-29T00:43:25.767Z,97192.28
2022-08-29T00:46:14.781Z,97184.69
2022-08-29T00:48:42.666Z,97187.38
2022-08-29T00:51:15.226Z,97182.31
2022-08-29T00:53:45.287Z,97182.75
2022-08-29T00:56:15.782Z,97193.84
2022-08-29T00:58:43.557Z,97198.84
2022-08-29T01:01:10.645Z,97204.72
2022-08-29T01:03:41.037Z,97210.97
2022-08-29T01:06:11.248Z,97202.53
2022-08-29T01:08:38.313Z,97205.81
2022-08-29T01:11:24.183Z,97201.63
2022-08-29T01:13:53.699Z,97211.34
2022-08-29T01:16:21.480Z,97208.50
2022-08-29T01:18:51.966Z,97199.47
2022-08-29T01:21:34.324Z,97200.38
2022-08-29T01:24:16.476Z,97196.09
2022-08-29T01:26:45.643Z,97195.22
2022-08-29T01:29:13.485Z,97195.94
2022-08-29T01:31:57.340Z,97190.13
2022-08-29T01:34:27.966Z,97189.31
2022-08-29T01:37:03.051Z,97183.72
2022-08-29T01:39:40.518Z,97185.84
2022-08-29T01:42:13.257Z,97187.84
2022-08-29T01:44:41.668Z,97185.78
2022-08-29T01:47:09.130Z,97188.53
2022-08-29T01:49:38.480Z,97194.06
2022-08-29T01:52:08.764Z,97185.69
2022-08-29T01:54:36.606Z,97184.00
2022-08-29T01:57:04.014Z,97180.44
2022-08-29T01:59:32.021Z,97178.03
2022-08-29T02:02:19.879Z,97179.38
2022-08-29T02:04:48.549Z,97180.09
2022-08-29T02:07:17.818Z,97178.75
2022-08-29T02:09:45.839Z,97178.03
2022-08-29T02:12:21.793Z,97175.97
2022-08-29T02:14:51.197Z,97174.03
2022-08-29T02:17:25.585Z,97171.63
2022-08-29T02:19:54.046Z,97177.84
2022-08-29T02:22:21.572Z,97177.69
2022-08-29T02:24:48.846Z,97176.34
2022-08-29T02:27:15.843Z,97174.94
2022-08-29T02:29:42.710Z,97176.25
2022-08-29T02:32:12.262Z,97184.19
2022-08-29T02:34:43.927Z,97185.63
2022-08-29T02:37:12.291Z,97182.13
2022-08-29T02:39:39.555Z,97184.09
2022-08-29T02:42:06.927Z,97188.88
2022-08-29T02:44:34.114Z,97186.13
2022-08-29T02:47:01.376Z,97186.56
2022-08-29T02:49:28.592Z,97187.47
2022-08-29T02:51:57.818Z,97188.16
2022-08-29T02:54:24.991Z,97186.66
2022-08-29T02:56:52.585Z,97188.81
2022-08-29T02:59:19.906Z,97185.25
2022-08-29T03:01:47.051Z,97190.16
2022-08-29T03:04:14.260Z,97185.97
2022-08-29T03:06:41.721Z,97186.47
2022-08-29T03:09:09.118Z,97187.13
2022-08-29T03:11:36.244Z,97187.81
2022-08-29T03:14:03.397Z,97186.22
2022-08-29T03:16:30.570Z,97186.22
2022-08-29T03:18:57.824Z,97180.69
2022-08-29T03:21:26.707Z,97186.84
2022-08-29T03:23:56.560Z,97180.69
2022-08-29T03:26:24.061Z,97184.88
2022-08-29T03:28:51.327Z,97186.22
2022-08-29T03:31:19.113Z,97183.25
2022-08-29T03:33:46.305Z,97187.38
2022-08-29T03:36:14.229Z,97189.34
2022-08-29T03:38:48.136Z,97185.03
2022-08-29T03:41:24.764Z,97185.66
2022-08-29T03:43:57.158Z,97192.50
2022-08-29T03:46:29.357Z,97187.72
2022-08-29T03:48:56.293Z,97182.19
2022-08-29T03:51:29.352Z,97184.84
2022-08-29T03:53:56.886Z,97181.91
2022-08-29T03:56:24.438Z,97184.50
2022-08-29T03:58:53.250Z,97178.78
2022-08-29T04:01:24.631Z,97183.78
2022-08-29T04:03:52.320Z,97185.09
2022-08-29T04:06:20.361Z,97189.91
2022-08-29T04:08:47.925Z,97192.59
2022-08-29T04:11:16.281Z,97194.34
2022-08-29T04:13:44.949Z,97189.44
2022-08-29T04:16:13.680Z,97190.97
2022-08-29T04:18:40.564Z,97201.38
2022-08-29T04:21:07.879Z,97193.72
2022-08-29T04:23:36.267Z,97190.16
2022-08-29T04:26:27.121Z,97188.63
2022-08-29T04:28:51.262Z,97190.50
2022-08-29T04:31:20.428Z,97193.25
2022-08-29T04:33:48.497Z,97194.59
2022-08-29T04:36:15.572Z,97196.03
2022-08-29T04:38:43.129Z,97204.31
2022-08-29T04:41:15.463Z,97211.97
2022-08-29T04:43:43.203Z,97201.03
2022-08-29T04:46:24.109Z,97205.72
2022-08-29T04:48:52.687Z,97202.44
2022-08-29T04:51:19.727Z,97207.34
2022-08-29T04:53:46.771Z,97207.25
2022-08-29T04:56:14.121Z,97216.34
2022-08-29T04:58:44.150Z,97219.81
2022-08-29T05:01:16.395Z,97216.34
2022-08-29T05:03:43.793Z,97228.81
2022-08-29T05:06:12.871Z,97221.97
2022-08-29T05:08:41.940Z,97212.44
2022-08-29T05:11:22.711Z,97218.16
2022-08-29T05:13:50.357Z,97222.53
2022-08-29T05:16:18.199Z,97220.06
2022-08-29T05:18:46.335Z,97230.84
2022-08-29T05:21:15.351Z,97237.19
2022-08-29T05:23:42.175Z,97230.94
2022-08-29T05:26:09.345Z,97229.28
2022-08-29T05:28:36.745Z,97235.25
2022-08-29T05:31:04.014Z,97233.47
2022-08-29T05:33:31.220Z,97235.16
2022-08-29T05:35:58.799Z,97234.94
2022-08-29T05:38:25.576Z,97234.16
2022-08-29T05:40:52.306Z,97233.31
2022-08-29T05:43:20.339Z,97243.59
2022-08-29T05:45:47.122Z,97243.38
2022-08-29T05:48:15.138Z,97246.66
2022-08-29T05:50:43.734Z,97249.94
2022-08-29T05:53:13.001Z,97248.41
2022-08-29T05:55:44.025Z,97252.56
2022-08-29T05:58:11.383Z,97256.63
2022-08-29T06:00:40.090Z,97254.84
2022-08-29T06:03:08.038Z,97257.91
2022-08-29T06:05:34.780Z,97263.75
2022-08-29T06:08:01.870Z,97257.41
2022-08-29T06:10:28.817Z,97267.00
2022-08-29T06:12:55.607Z,97259.84
2022-08-29T06:15:22.598Z,97260.28
2022-08-29T06:17:49.689Z,97264.25
2022-08-29T06:20:16.478Z,97259.63
2022-08-29T06:22:43.401Z,97267.94
2022-08-29T06:25:34.996Z,97276.47
2022-08-29T06:27:57.236Z,97273.78
2022-08-29T06:30:23.958Z,97269.16
2022-08-29T06:32:50.698Z,97273.41
2022-08-29T06:35:17.404Z,97269.53
2022-08-29T06:37:44.381Z,97268.31
2022-08-29T06:40:11.714Z,97271.31
2022-08-29T06:42:38.551Z,97259.94
2022-08-29T06:45:06.989Z,97262.91
2022-08-29T06:47:34.467Z,97273.25
2022-08-29T06:50:01.264Z,97272.41
2022-08-29T06:52:28.731Z,97273.03
2022-08-29T06:54:55.571Z,97271.69
2022-08-29T06:57:22.547Z,97276.59
2022-08-29T06:59:49.503Z,97275.56
2022-08-29T07:02:16.393Z,97273.00
2022-08-29T07:04:44.375Z,97266.94
2022-08-29T07:07:11.315Z,97273.34
2022-08-29T07:09:38.182Z,97282.53
2022-08-29T07:12:06.096Z,97276.91
2022-08-29T07:14:33.054Z,97278.59
2022-08-29T07:17:00.799Z,97280.28
2022-08-29T07:19:27.722Z,97287.66
2022-08-29T07:21:57.951Z,97284.72
2022-08-29T07:24:25.279Z,97284.31
2022-08-29T07:26:52.501Z,97281.84
2022-08-29T07:29:22.430Z,97286.69
2022-08-29T07:31:49.379Z,97284.31
2022-08-29T07:34:20.624Z,97290.78
2022-08-29T07:36:47.858Z,97297.44
2022-08-29T07:39:16.871Z,97292.56
2022-08-29T07:41:44.542Z,97292.03
2022-08-29T07:44:12.980Z,97293.59
2022-08-29T07:46:39.817Z,97295.22
2022-08-29T07:49:07.220Z,97292.81
2022-08-29T07:51:34.826Z,97289.00
2022-08-29T07:54:01.858Z,97294.81
2022-08-29T07:56:37.819Z,97293.06
2022-08-29T07:59:06.126Z,97291.28
2022-08-29T08:01:33.307Z,97299.16
2022-08-29T08:04:00.168Z,97295.75
2022-08-29T08:06:27.691Z,97285.41
2022-08-29T08:08:55.496Z,97296.66
2022-08-29T08:11:23.514Z,97295.44
2022-08-29T08:13:50.218Z,97285.94
2022-08-29T08:16:20.427Z,97299.59
2022-08-29T08:18:47.259Z,97285.53
2022-08-29T08:21:14.596Z,97289.25
2022-08-29T08:23:41.873Z,97296.38
2022-08-29T08:26:09.931Z,97288.28
2022-08-29T08:28:37.033Z,97282.91
2022-08-29T08:31:07.559Z,97288.13
2022-08-29T08:33:35.874Z,97284.28
2022-08-29T08:36:06.183Z,97287.97
2022-08-29T08:38:33.003Z,97296.56
2022-08-29T08:41:42.092Z,97294.09
2022-08-29T08:44:28.937Z,97284.59
2022-08-29T08:47:01.684Z,97286.84
2022-08-29T08:49:40.074Z,97290.47
2022-08-29T08:52:11.242Z,97301.03
2022-08-29T08:54:50.616Z,97302.69
2022-08-29T08:57:18.395Z,97296.59
2022-08-29T08:59:48.262Z,97305.13
2022-08-29T09:02:49.042Z,97291.97
2022-08-29T09:05:31.031Z,97296.97
2022-08-29T09:08:16.265Z,97301.97
2022-08-29T09:11:04.754Z,97303.53
2022-08-29T09:14:06.687Z,97296.66
2022-08-29T09:16:40.812Z,97297.53
2022-08-29T09:19:10.965Z,97284.38
2022-08-29T09:21:46.625Z,97292.88
2022-08-29T09:24:23.758Z,97292.38
2022-08-29T09:26:50.542Z,97290.44
2022-08-29T09:29:21.091Z,97289.25
2022-08-29T09:32:05.905Z,97289.25
2022-08-29T09:35:06.901Z,97282.28
2022-08-29T09:37:33.177Z,97278.84
2022-08-29T09:40:07.536Z,97281.59
2022-08-29T09:42:53.511Z,97273.94
2022-08-29T09:45:25.194Z,97281.59
2022-08-29T09:48:18.808Z,97278.16
2022-08-29T09:50:46.565Z,97281.09
2022-08-29T09:53:24.621Z,97279.06
2022-08-29T09:55:52.503Z,97290.41
2022-08-29T09:58:19.178Z,97289.06
2022-08-29T10:01:07.559Z,97280.88
2022-08-29T10:03:39.149Z,97279.53
2022-08-29T10:06:16.783Z,97281.00
2022-08-29T10:08:56.066Z,97279.59
2022-08-29T10:11:31.597Z,97271.25
2022-08-29T10:14:06.135Z,97274.88
2022-08-29T10:16:52.080Z,97273.53
2022-08-29T10:19:22.927Z,97279.22
2022-08-29T10:22:06.170Z,97268.78
2022-08-29T10:24:55.066Z,97278.69
2022-08-29T10:27:37.471Z,97280.22
2022-08-29T10:30:06.908Z,97270.44
2022-08-29T10:33:09.842Z,97286.53
2022-08-29T10:35:44.231Z,97273.75
2022-08-29T10:38:26.206Z,97272.31
2022-08-29T10:41:03.183Z,97266.09
2022-08-29T10:43:39.274Z,97261.34
2022-08-29T10:46:32.866Z,97253.06
2022-08-29T10:49:17.938Z,97260.25
2022-08-29T10:52:10.786Z,97263.81
2022-08-29T10:54:49.445Z,97261.06
2022-08-29T10:57:41.556Z,97259.66
2022-08-29T11:00:19.407Z,97250.56
2022-08-29T11:03:09.202Z,97248.25
2022-08-29T11:05:44.917Z,97250.91
2022-08-29T11:08:22.217Z,97250.06
2022-08-29T11:10:52.163Z,97252.13
2022-08-29T11:13:25.099Z,97244.63
2022-08-29T11:16:07.740Z,97237.09
2022-08-29T11:18:40.787Z,97232.22
2022-08-29T11:21:22.314Z,97241.31
2022-08-29T11:23:49.166Z,97249.00
2022-08-29T11:26:57.487Z,97248.25
2022-08-29T11:29:27.314Z,97249.72
2022-08-29T11:32:20.786Z,97247.59
2022-08-29T11:35:07.521Z,97246.19
2022-08-29T11:38:11.424Z,97249.66
2022-08-29T11:43:49.342Z,97249.72
2022-08-29T11:46:17.169Z,97246.94
2022-08-29T11:48:48.118Z,97243.38
2022-08-29T11:51:38.396Z,97242.81
2022-08-29T11:54:25.015Z,97225.91
2022-08-29T11:57:12.176Z,97229.53
2022-08-29T11:59:56.997Z,97228.19
2022-08-29T12:02:32.779Z,97231.81
2022-08-29T12:05:01.682Z,97226.31
2022-08-29T12:07:50.027Z,97226.34
2022-08-29T12:10:19.640Z,97225.00
2022-08-29T12:12:48.924Z,97227.16
2022-08-29T12:15:27.101Z,97215.22
2022-08-29T12:18:02.353Z,97217.28
2022-08-29T12:20:30.266Z,97226.44
2022-08-29T12:23:12.755Z,97213.09
2022-08-29T12:25:43.310Z,97207.44
2022-08-29T12:28:16.570Z,97212.34
2022-08-29T12:30:49.884Z,97213.00
2022-08-29T12:33:36.407Z,97209.44
2022-08-29T12:36:16.331Z,97213.66
2022-08-29T12:38:58.450Z,97209.44
2022-08-29T12:41:27.952Z,97201.00
2022-08-29T12:43:57.362Z,97197.47
2022-08-29T12:46:51.206Z,97200.94
2022-08-29T12:49:29.609Z,97200.91
2022-08-29T12:51:58.442Z,97198.03
2022-08-29T12:54:41.402Z,97203.59
2022-08-29T12:57:20.739Z,97205.66
2022-08-29T12:59:49.666Z,97206.31
2022-08-29T13:02:26.651Z,97194.28
2022-08-29T13:04:53.576Z,97201.28
2022-08-29T13:09:59.139Z,97194.94
2022-08-29T13:12:31.932Z,97192.03
2022-08-29T13:15:03.214Z,97194.72
2022-08-29T13:17:35.282Z,97185.44
2022-08-29T13:20:43.368Z,97182.59
2022-08-29T13:23:16.634Z,97178.34
2022-08-29T13:25:48.551Z,97185.41
2022-08-29T13:28:29.736Z,97177.75
2022-08-29T13:31:07.079Z,97176.38
2022-08-29T13:33:36.005Z,97166.66
2022-08-29T13:36:44.942Z,97175.28
2022-08-29T13:39:26.717Z,97167.53
2022-08-29T13:42:03.092Z,97169.72
2022-08-29T13:44:54.923Z,97166.28
2022-08-29T13:47:26.352Z,97171.13
2022-08-29T13:50:02.206Z,97170.38
2022-08-29T13:52:31.524Z,97156.34
2022-08-29T13:55:06.324Z,97153.56
2022-08-29T13:57:38.462Z,97154.91
2022-08-29T14:00:32.370Z,97148.47
2022-08-29T14:03:05.702Z,97156.16
2022-08-29T14:05:38.362Z,97154.72
2022-08-29T14:08:06.636Z,97141.88
2022-08-29T14:10:33.858Z,97135.47
2022-08-29T14:13:05.655Z,97141.97
2022-08-29T14:15:33.341Z,97150.59
2022-08-29T14:18:01.215Z,97140.81
2022-08-29T14:20:28.832Z,97150.03
2022-08-29T14:22:56.450Z,97142.31
2022-08-29T14:25:24.173Z,97145.22
2022-08-29T14:27:55.823Z,97138.91
2022-08-29T14:30:25.780Z,97144.34
2022-08-29T14:32:53.210Z,97147.88
2022-08-29T14:35:26.375Z,97140.72
2022-08-29T14:38:00.181Z,97140.59
2022-08-29T14:40:28.787Z,97130.69
2022-08-29T14:42:57.127Z,97136.44
2022-08-29T14:45:23.929Z,97132.97
2022-08-29T14:47:59.040Z,97128.75
2022-08-29T14:50:26.194Z,97134.44
2022-08-29T14:52:53.869Z,97140.13
2022-08-29T14:55:21.424Z,97142.34
2022-08-29T14:57:49.113Z,97138.22
2022-08-29T15:00:27.952Z,97129.13
2022-08-29T15:05:36.587Z,97136.22
2022-08-29T15:08:06.610Z,97136.25
2022-08-29T15:10:34.393Z,97134.84
2022-08-29T15:13:01.953Z,97134.81
2022-08-29T15:15:31.907Z,97133.28
2022-08-29T15:18:00.426Z,97138.75
2022-08-29T15:20:37.144Z,97125.94
2022-08-29T15:23:04.888Z,97131.41
2022-08-29T15:25:31.700Z,97120.69
2022-08-29T15:27:58.540Z,97120.50
2022-08-29T15:30:25.782Z,97116.75
2022-08-29T15:32:52.988Z,97116.59
2022-08-29T15:35:20.069Z,97113.03
2022-08-29T15:37:46.821Z,97117.28
2022-08-29T15:40:14.368Z,97108.06
2022-08-29T15:42:41.487Z,97109.34
2022-08-29T15:45:12.285Z,97108.06
2022-08-29T15:47:40.176Z,97093.66
2022-08-29T15:50:13.886Z,97102.34
2022-08-29T15:52:40.593Z,97108.00
2022-08-29T15:55:07.832Z,97095.84
2022-08-29T15:57:40.220Z,97099.09
2022-08-29T16:00:30.294Z,97100.69
2022-08-29T16:02:59.133Z,97091.22
2022-08-29T16:05:26.002Z,97087.91
2022-08-29T16:07:53.226Z,97094.00
2022-08-29T16:10:20.082Z,97081.97
2022-08-29T16:12:46.814Z,97090.78
2022-08-29T16:15:13.667Z,97090.28
2022-08-29T16:17:40.533Z,97088.34
2022-08-29T16:20:11.528Z,97085.66
2022-08-29T16:22:39.882Z,97090.66
2022-08-29T16:25:08.821Z,97088.44
2022-08-29T16:27:36.211Z,97095.06
2022-08-29T16:30:04.333Z,97107.88
2022-08-29T16:32:31.646Z,97106.00
2022-08-29T16:34:58.720Z,97096.63
2022-08-29T16:37:25.487Z,97092.56
2022-08-29T16:39:52.275Z,97087.81
2022-08-29T16:42:19.082Z,97083.31
2022-08-29T16:44:45.876Z,97085.97
2022-08-29T16:47:12.826Z,97083.53
2022-08-29T16:49:39.790Z,97074.19
2022-08-29T16:52:06.699Z,97096.78
2022-08-29T16:54:33.897Z,97091.88
2022-08-29T16:57:00.683Z,97096.97
2022-08-29T16:59:27.691Z,97085.19
2022-08-29T17:01:55.772Z,97081.00
2022-08-29T17:04:25.313Z,97074.66
2022-08-29T17:06:52.445Z,97076.34
2022-08-29T17:09:21.581Z,97073.44
2022-08-29T17:11:49.035Z,97077.94
2022-08-29T17:14:16.373Z,97079.50
2022-08-29T17:16:45.834Z,97076.03
2022-08-29T17:19:13.478Z,97075.31
2022-08-29T17:21:40.248Z,97071.09
2022-08-29T17:24:07.265Z,97068.22
2022-08-29T17:26:36.243Z,97063.25
2022-08-29T17:29:12.342Z,97064.56
2022-08-29T17:31:39.589Z,97069.34
2022-08-29T17:34:08.515Z,97068.56
2022-08-29T17:36:40.472Z,97072.63
2022-08-29T17:39:08.113Z,97073.16
2022-08-29T17:41:37.398Z,97068.13
2022-08-29T17:44:10.021Z,97070.00
2022-08-29T17:46:36.862Z,97076.06
2022-08-29T17:49:07.910Z,97076.53
2022-08-29T17:51:35.766Z,97072.75
2022-08-29T17:54:04.424Z,97068.38
2022-08-29T17:56:44.407Z,97075.16
2022-08-29T17:59:12.698Z,97077.72
2022-08-29T18:01:39.911Z,97085.88
2022-08-29T18:04:06.679Z,97085.66
2022-08-29T18:06:33.430Z,97087.59
2022-08-29T18:09:00.471Z,97095.09
2022-08-29T18:11:27.315Z,97088.66
2022-08-29T18:13:55.139Z,97091.97
2022-08-29T18:16:22.048Z,97090.44
2022-08-29T18:18:49.265Z,97085.34
2022-08-29T18:21:18.562Z,97088.66
2022-08-29T18:23:45.848Z,97095.38
2022-08-29T18:26:13.395Z,97100.75
2022-08-29T18:28:41.030Z,97101.81
2022-08-29T18:31:09.081Z,97101.50
2022-08-29T18:33:59.140Z,97104.81
2022-08-29T18:36:23.955Z,97106.78
2022-08-29T18:38:50.880Z,97105.31
2022-08-29T18:41:17.824Z,97107.88
2022-08-29T18:43:44.746Z,97107.75
2022-08-29T18:46:11.856Z,97108.34
2022-08-29T18:48:39.769Z,97116.00
2022-08-29T18:51:06.718Z,97109.44
2022-08-29T18:53:33.980Z,97125.22
2022-08-29T18:56:01.395Z,97118.88
2022-08-29T18:58:30.959Z,97130.47
2022-08-29T19:00:59.012Z,97128.19
2022-08-29T19:03:25.894Z,97140.53
2022-08-29T19:05:53.962Z,97146.06
2022-08-29T19:08:24.654Z,97149.31
2022-08-29T19:10:55.572Z,97149.25
2022-08-29T19:13:25.365Z,97148.28
2022-08-29T19:15:56.037Z,97162.91
2022-08-29T19:18:22.867Z,97158.72
2022-08-29T19:21:07.846Z,97161.16
2022-08-29T19:23:41.046Z,97163.72
2022-08-29T19:26:13.405Z,97162.19
2022-08-29T19:28:41.596Z,97169.16
2022-08-29T19:31:08.641Z,97171.84
2022-08-29T19:33:42.758Z,97174.53
2022-08-29T19:36:19.079Z,97171.47
2022-08-29T19:38:50.090Z,97169.09
2022-08-29T19:41:21.291Z,97168.38
2022-08-29T19:43:48.854Z,97180.88
2022-08-29T19:46:24.476Z,97176.56
2022-08-29T19:48:52.894Z,97177.16
2022-08-29T19:51:26.382Z,97176.38
2022-08-29T19:54:02.134Z,97179.09
2022-08-29T19:56:35.367Z,97178.03
2022-08-29T19:59:07.806Z,97179.91
2022-08-29T20:01:40.489Z,97178.41
2022-08-29T20:04:13.948Z,97178.00
2022-08-29T20:06:45.613Z,97187.09
2022-08-29T20:11:50.008Z,97184.19
2022-08-29T20:14:22.594Z,97184.97
2022-08-29T20:16:54.485Z,97187.75
2022-08-29T20:19:25.413Z,97189.50
2022-08-29T20:21:55.024Z,97188.03
2022-08-29T20:24:26.843Z,97184.34
2022-08-29T20:26:59.200Z,97189.84
2022-08-29T20:32:09.393Z,97192.94
2022-08-29T20:34:41.802Z,97186.53
2022-08-29T20:37:09.822Z,97189.50
2022-08-29T20:39:43.979Z,97191.72
2022-08-29T20:42:13.414Z,97194.88
2022-08-29T20:44:45.418Z,97189.97
2022-08-29T20:47:19.637Z,97188.66
2022-08-29T20:49:54.405Z,97195.44
2022-08-29T20:52:26.838Z,97194.69
2022-08-29T20:54:58.172Z,97191.72
2022-08-29T20:57:30.032Z,97199.97
2022-08-29T21:00:04.208Z,97201.13
2022-08-29T21:02:57.000Z,97194.66
2022-08-29T21:05:48.582Z,97191.94
2022-08-29T21:08:25.131Z,97194.81
2022-08-29T21:10:57.978Z,97194.88
2022-08-29T21:13:32.662Z,97199.56
2022-08-29T21:16:06.127Z,97193.97
2022-08-29T21:18:38.360Z,97207.03
2022-08-29T21:21:14.238Z,97197.94
2022-08-29T21:23:42.095Z,97209.06
2022-08-29T21:26:10.114Z,97208.19
2022-08-29T21:28:38.003Z,97205.41
2022-08-29T21:31:12.274Z,97199.69
2022-08-29T21:33:41.680Z,97197.44
2022-08-29T21:36:18.731Z,97205.69
2022-08-29T21:38:46.533Z,97197.44
2022-08-29T21:41:14.162Z,97195.97
2022-08-29T21:43:41.099Z,97196.53
2022-08-29T21:46:25.121Z,97192.13
2022-08-29T21:48:56.400Z,97197.69
2022-08-29T21:51:23.874Z,97199.66
2022-08-29T21:53:52.316Z,97196.81
2022-08-29T21:56:19.613Z,97198.19
2022-08-29T21:58:52.771Z,97196.13
2022-08-29T22:01:30.146Z,97200.72
2022-08-29T22:03:59.243Z,97193.53
2022-08-29T22:06:27.601Z,97194.34
2022-08-29T22:08:55.051Z,97191.41
2022-08-29T22:11:37.197Z,97188.56
2022-08-29T22:14:05.774Z,97193.13
2022-08-29T22:16:32.663Z,97188.13
2022-08-29T22:19:05.259Z,97185.06
2022-08-29T22:21:36.502Z,97187.41
2022-08-29T22:24:04.469Z,97191.91
2022-08-29T22:26:31.298Z,97199.75
2022-08-29T22:28:58.099Z,97196.66
2022-08-29T22:31:25.450Z,97188.69
2022-08-29T22:33:52.470Z,97192.66
2022-08-29T22:36:19.545Z,97200.13
2022-08-29T22:38:47.786Z,97194.81
2022-08-29T22:41:22.870Z,97195.81
2022-08-29T22:44:08.752Z,97195.69
2022-08-29T22:46:38.149Z,97198.00
2022-08-29T22:49:04.935Z,97210.03
2022-08-29T22:51:31.719Z,97211.56
2022-08-29T22:54:17.087Z,97209.97
2022-08-29T22:56:45.429Z,97208.38
2022-08-29T22:59:13.490Z,97205.69
2022-08-29T23:01:42.565Z,97210.66
2022-08-29T23:04:09.416Z,97215.28
2022-08-29T23:06:36.418Z,97212.91
2022-08-29T23:09:04.040Z,97216.38
2022-08-29T23:11:31.283Z,97216.31
2022-08-29T23:13:58.029Z,97212.91
2022-08-29T23:16:24.799Z,97217.66
2022-08-29T23:18:51.897Z,97214.19
2022-08-29T23:21:19.430Z,97223.28
2022-08-29T23:23:46.382Z,97217.72
2022-08-29T23:26:13.110Z,97218.44
2022-08-29T23:28:40.383Z,97221.84
2022-08-29T23:31:07.192Z,97218.94
2022-08-29T23:33:33.902Z,97217.91
2022-08-29T23:36:00.843Z,97217.13
2022-08-29T23:38:27.573Z,97226.94
2022-08-29T23:40:56.795Z,97231.19
2022-08-29T23:43:24.531Z,97225.59
2022-08-29T23:45:51.949Z,97227.00
2022-08-29T23:48:19.020Z,97222.88
2022-08-29T23:50:53.774Z,97226.38
2022-08-29T23:53:21.972Z,97232.56
2022-08-29T23:55:49.554Z,97232.09
2022-08-29T23:58:17.128Z,97236.75
